Terminal Aerodrome Forecast
Issued by NWS Melbourne, FL

Home | Current Version | Previous Version | Text Only | Print | Product List | Glossary On
Versions: 1 2 3 4 5 6 7 8 9 10 11 12
629
FTUS42 KMLB 032324
TAFMLB
TAF
KMLB 032324Z 0400/0424 07008KT P6SM SCT035
     FM041700 12012KT P6SM FEW035 SCT050
     FM041900 13013G18KT P6SM BKN050
     FM042200 14010KT P6SM OVC050=

USA.gov is the U.S. government's official web portal to all federal, state and local government web resources and services.